Powassan, Canada
Current Conditions -  °F | °C
As of 9:00 AM on Thursday 23 Oct 2014 (Local Time) from CYYB Reporting Station
Clear Clear  
Wind Chill: 36°   Ceiling: Unl
Heat Index: 36°   Visibility: 15mi
Dew Point: 34°   Wind: 2mph
Humidity: 93%   Direction: 80°E
Pressure: 30.21"   Gusts: NA
Location:  46.08°N, 79.36°W
Report Text: CYYB 231300Z 08002KT 15SM SKC 02/01 A3021 RMK SLP244
Loading
Personal Weather Stations






























Interactive Weather Map
Tropical Storm Tracking
New forecast layout! Learn more

10-Day Weather Forecast

Advertisements
Track Severe Weather on mobile